EDT,Max TemperatureF,Mean TemperatureF,Min TemperatureF,Max Dew PointF,MeanDew PointF,Min DewpointF,Max Humidity, Mean Humidity, Min Humidity, Max Sea Level PressureIn, Mean Sea Level PressureIn, Min Sea Level PressureIn, Max VisibilityMiles, Mean VisibilityMiles, Min VisibilityMiles, Max Wind SpeedMPH, Mean Wind SpeedMPH, Max Gust SpeedMPH,PrecipitationIn, CloudCover, Events, WindDirDegrees
2013-3-1,30,28,26,26,22,20,92,84,75,30.03,29.96,29.88,8,4,2,18,12,23,0.02,8,Snow,340
2013-3-2,29,27,24,22,20,18,81,75,69,30.01,29.98,29.93,7,4,2,16,10,21,0.04,8,Snow,340
2013-3-3,26,24,21,21,18,16,92,80,68,30.06,30.00,29.95,8,4,1,16,9,20,0.06,8,Snow,298
2013-3-4,36,25,14,22,17,12,96,74,52,30.16,30.11,30.05,10,8,4,14,5,18,T,4,Snow,298
2013-3-5,43,32,20,24,19,15,81,60,39,30.12,29.91,29.65,10,9,7,21,11,26,0.00,5,,86
2013-3-6,43,36,28,30,28,24,92,72,52,30.17,29.91,29.63,10,6,0,22,10,26,0.14,7,Fog-Snow,51
2013-3-7,42,36,29,31,29,24,92,78,64,30.35,30.26,30.15,9,6,2,17,10,20,T,7,Snow,328
2013-3-8,39,32,24,29,25,22,85,75,64,30.47,30.42,30.33,10,9,6,15,7,20,0.00,5,,347
2013-3-9,54,39,23,31,27,21,92,65,38,30.43,30.30,30.14,10,8,4,13,7,18,0.00,4,,119
2013-3-10,67,56,45,37,34,28,53,43,32,30.12,30.03,29.90,10,9,5,20,12,24,0.03,7,Rain,175
2013-3-11,58,50,42,48,41,34,93,67,40,29.90,29.77,29.61,10,7,2,26,14,36,0.49,8,Rain,201
2013-3-12,42,35,27,36,30,25,89,80,70,30.00,29.89,29.77,9,7,5,15,11,23,T,8,Rain-Snow,255
2013-3-13,32,29,26,28,24,18,92,75,58,30.18,30.00,29.90,10,4,0,25,13,36,0.10,7,Fog-Snow,276
2013-3-14,39,31,22,22,19,16,77,65,52,30.25,30.20,30.15,10,10,7,21,11,28,T,4,Snow,278
2013-3-15,46,36,25,36,28,20,92,76,60,30.13,29.96,29.86,10,7,2,18,9,24,0.06,6,Rain,264
2013-3-16,39,34,29,36,32,24,96,87,78,30.01,29.80,29.68,8,3,1,13,8,16,0.05,8,Rain-Snow,49
2013-3-17,34,31,27,25,22,18,85,71,56,30.21,30.15,30.04,10,8,5,13,7,20,0.00,8,,18
2013-3-18,47,38,28,44,31,19,96,83,69,30.15,29.85,29.61,10,4,1,24,15,32,0.52,8,Rain-Snow,132
2013-3-19,40,34,27,37,21,16,92,73,54,29.98,29.84,29.72,10,8,2,35,17,45,T,7,Rain-Snow,265
2013-3-20,34,26,18,23,18,15,88,71,53,29.99,29.92,29.86,10,6,0,23,11,33,0.04,6,Fog-Snow,278
2013-3-21,28,21,14,22,15,7,81,72,62,29.94,29.90,29.85,10,6,2,20,11,24,0.01,5,Snow,276
2013-3-22,37,31,24,22,19,16,75,64,52,30.03,29.98,29.93,10,6,3,17,9,21,T,6,Snow,277
2013-3-23,45,34,22,25,21,18,81,61,40,30.07,30.04,29.98,8,7,5,14,5,17,0.00,3,,324
2013-3-24,36,31,26,23,22,21,81,69,56,30.00,29.80,29.50,10,10,7,21,13,26,0.01,6,Snow,65
2013-3-25,36,34,32,32,31,28,96,89,82,29.82,29.53,29.41,2,1,0,20,9,25,0.47,8,Fog-Snow,57
2013-3-26,39,35,31,31,29,27,92,78,64,30.11,29.97,29.81,10,7,1,16,10,21,T,8,Snow,309
2013-3-27,44,38,32,30,28,25,92,74,55,30.19,30.14,30.08,10,7,2,20,13,26,0.02,7,Snow,290
2013-3-28,45,39,33,29,27,25,75,62,49,30.29,30.23,30.17,10,10,9,17,9,22,T,7,Snow,298
2013-3-29,51,42,32,28,25,19,75,56,36,30.29,30.25,30.21,10,10,8,18,7,25,0.00,4,,288
2013-3-30,54,42,29,26,23,19,70,49,28,30.27,30.16,30.00,10,9,7,15,5,21,0.00,3,,197
2013-3-31,51,46,41,44,34,22,86,64,41,29.98,29.80,29.70,10,8,5,17,10,22,T,7,Rain,194